sensor_id;sensor_type;location;lat;lon;timestamp;P1;durP1;ratioP1;P2;durP2;ratioP2
72373;SDS011;60349;64.132;-21.820;2023-03-01T00:02:03;9.13;;;1.48;;
72373;SDS011;60349;64.132;-21.820;2023-03-01T00:04:29;10.07;;;1.67;;
72373;SDS011;60349;64.132;-21.820;2023-03-01T00:06:56;13.82;;;3.05;;
72373;SDS011;60349;64.132;-21.820;2023-03-01T00:09:22;10.27;;;3.75;;
72373;SDS011;60349;64.132;-21.820;2023-03-01T00:11:48;19.38;;;5.70;;
72373;SDS011;60349;64.132;-21.820;2023-03-01T00:14:15;13.02;;;4.05;;
72373;SDS011;60349;64.132;-21.820;2023-03-01T00:16:42;12.07;;;4.95;;
72373;SDS011;60349;64.132;-21.820;2023-03-01T00:19:09;14.00;;;4.60;;
72373;SDS011;60349;64.132;-21.820;2023-03-01T00:21:37;16.90;;;4.68;;
72373;SDS011;60349;64.132;-21.820;2023-03-01T00:24:03;16.50;;;4.32;;
72373;SDS011;60349;64.132;-21.820;2023-03-01T00:26:29;15.63;;;4.10;;
72373;SDS011;60349;64.132;-21.820;2023-03-01T00:28:56;14.50;;;5.05;;
72373;SDS011;60349;64.132;-21.820;2023-03-01T00:31:24;11.48;;;3.13;;
72373;SDS011;60349;64.132;-21.820;2023-03-01T00:33:54;12.85;;;3.15;;
72373;SDS011;60349;64.132;-21.820;2023-03-01T00:36:25;11.77;;;3.00;;
72373;SDS011;60349;64.132;-21.820;2023-03-01T00:38:51;15.77;;;2.80;;
72373;SDS011;60349;64.132;-21.820;2023-03-01T00:41:18;10.77;;;1.98;;
72373;SDS011;60349;64.132;-21.820;2023-03-01T00:43:44;34.53;;;16.05;;
72373;SDS011;60349;64.132;-21.820;2023-03-01T00:46:12;51.47;;;28.05;;
72373;SDS011;60349;64.132;-21.820;2023-03-01T00:48:38;37.05;;;18.33;;
72373;SDS011;60349;64.132;-21.820;2023-03-01T00:51:05;36.25;;;17.58;;
72373;SDS011;60349;64.132;-21.820;2023-03-01T00:53:31;33.65;;;16.02;;
72373;SDS011;60349;64.132;-21.820;2023-03-01T00:55:57;30.20;;;12.90;;
72373;SDS011;60349;64.132;-21.820;2023-03-01T00:58:24;28.95;;;12.75;;
72373;SDS011;60349;64.132;-21.820;2023-03-01T01:00:50;26.33;;;11.73;;
72373;SDS011;60349;64.132;-21.820;2023-03-01T01:03:17;24.92;;;11.05;;
72373;SDS011;60349;64.132;-21.820;2023-03-01T01:05:44;22.40;;;10.30;;
72373;SDS011;60349;64.132;-21.820;2023-03-01T01:08:10;22.45;;;9.55;;
72373;SDS011;60349;64.132;-21.820;2023-03-01T01:10:36;19.67;;;7.13;;
72373;SDS011;60349;64.132;-21.820;2023-03-01T01:13:03;19.92;;;6.80;;
72373;SDS011;60349;64.132;-21.820;2023-03-01T01:15:29;21.45;;;6.72;;
72373;SDS011;60349;64.132;-21.820;2023-03-01T01:17:55;16.92;;;5.15;;
72373;SDS011;60349;64.132;-21.820;2023-03-01T01:20:21;18.08;;;5.25;;
72373;SDS011;60349;64.132;-21.820;2023-03-01T01:22:47;16.05;;;5.00;;
72373;SDS011;60349;64.132;-21.820;2023-03-01T01:25:13;16.05;;;4.28;;
72373;SDS011;60349;64.132;-21.820;2023-03-01T01:27:39;17.92;;;5.03;;
72373;SDS011;60349;64.132;-21.820;2023-03-01T01:30:06;18.15;;;4.28;;
72373;SDS011;60349;64.132;-21.820;2023-03-01T01:32:32;29.35;;;12.65;;
72373;SDS011;60349;64.132;-21.820;2023-03-01T01:34:58;26.75;;;10.75;;
72373;SDS011;60349;64.132;-21.820;2023-03-01T01:37:24;21.90;;;9.32;;
72373;SDS011;60349;64.132;-21.820;2023-03-01T01:39:56;20.83;;;7.93;;
72373;SDS011;60349;64.132;-21.820;2023-03-01T01:42:23;19.73;;;7.30;;
72373;SDS011;60349;64.132;-21.820;2023-03-01T01:45:15;18.73;;;6.28;;
72373;SDS011;60349;64.132;-21.820;2023-03-01T01:47:35;18.17;;;5.78;;
72373;SDS011;60349;64.132;-21.820;2023-03-01T01:50:01;19.35;;;4.90;;
72373;SDS011;60349;64.132;-21.820;2023-03-01T01:52:29;21.30;;;6.38;;
72373;SDS011;60349;64.132;-21.820;2023-03-01T01:55:02;15.95;;;4.93;;
72373;SDS011;60349;64.132;-21.820;2023-03-01T01:57:32;15.93;;;4.82;;
72373;SDS011;60349;64.132;-21.820;2023-03-01T02:00:00;13.25;;;3.75;;
72373;SDS011;60349;64.132;-21.820;2023-03-01T02:02:28;16.23;;;3.63;;
72373;SDS011;60349;64.132;-21.820;2023-03-01T02:04:58;15.00;;;3.42;;
72373;SDS011;60349;64.132;-21.820;2023-03-01T02:07:24;12.60;;;2.67;;
72373;SDS011;60349;64.132;-21.820;2023-03-01T02:09:51;13.68;;;2.47;;
72373;SDS011;60349;64.132;-21.820;2023-03-01T02:12:19;12.73;;;2.85;;
72373;SDS011;60349;64.132;-21.820;2023-03-01T02:14:47;13.02;;;2.50;;
72373;SDS011;60349;64.132;-21.820;2023-03-01T02:17:14;14.27;;;1.75;;
72373;SDS011;60349;64.132;-21.820;2023-03-01T02:22:23;10.70;;;1.70;;
72373;SDS011;60349;64.132;-21.820;2023-03-01T02:27:22;12.10;;;1.35;;
72373;SDS011;60349;64.132;-21.820;2023-03-01T02:29:50;9.98;;;1.58;;
72373;SDS011;60349;64.132;-21.820;2023-03-01T02:32:16;9.32;;;1.52;;
72373;SDS011;60349;64.132;-21.820;2023-03-01T02:34:50;9.50;;;1.35;;
72373;SDS011;60349;64.132;-21.820;2023-03-01T02:37:17;11.48;;;1.15;;
72373;SDS011;60349;64.132;-21.820;2023-03-01T02:39:49;9.45;;;1.15;;
72373;SDS011;60349;64.132;-21.820;2023-03-01T02:42:23;7.90;;;1.33;;
72373;SDS011;60349;64.132;-21.820;2023-03-01T02:44:52;8.00;;;1.00;;
72373;SDS011;60349;64.132;-21.820;2023-03-01T02:47:18;10.05;;;1.00;;
72373;SDS011;60349;64.132;-21.820;2023-03-01T02:49:44;7.15;;;0.68;;
72373;SDS011;60349;64.132;-21.820;2023-03-01T02:57:29;6.57;;;0.75;;
72373;SDS011;60349;64.132;-21.820;2023-03-01T02:59:57;9.23;;;1.20;;
72373;SDS011;60349;64.132;-21.820;2023-03-01T03:02:26;8.88;;;0.70;;
72373;SDS011;60349;64.132;-21.820;2023-03-01T03:05:03;13.75;;;1.23;;
72373;SDS011;60349;64.132;-21.820;2023-03-01T03:07:31;8.32;;;0.90;;
72373;SDS011;60349;64.132;-21.820;2023-03-01T03:09:58;12.27;;;0.85;;
72373;SDS011;60349;64.132;-21.820;2023-03-01T03:12:24;9.27;;;0.90;;
72373;SDS011;60349;64.132;-21.820;2023-03-01T03:14:50;8.27;;;0.70;;
72373;SDS011;60349;64.132;-21.820;2023-03-01T03:17:16;8.45;;;0.77;;
72373;SDS011;60349;64.132;-21.820;2023-03-01T03:19:42;8.85;;;0.93;;
72373;SDS011;60349;64.132;-21.820;2023-03-01T03:22:11;9.45;;;0.80;;
72373;SDS011;60349;64.132;-21.820;2023-03-01T03:24:37;9.00;;;0.75;;
72373;SDS011;60349;64.132;-21.820;2023-03-01T03:27:04;7.13;;;0.70;;
72373;SDS011;60349;64.132;-21.820;2023-03-01T03:29:30;6.18;;;0.50;;
72373;SDS011;60349;64.132;-21.820;2023-03-01T03:31:56;8.00;;;1.95;;
72373;SDS011;60349;64.132;-21.820;2023-03-01T03:34:22;9.80;;;0.80;;
72373;SDS011;60349;64.132;-21.820;2023-03-01T03:36:52;8.93;;;0.88;;
72373;SDS011;60349;64.132;-21.820;2023-03-01T03:39:22;6.90;;;0.70;;
72373;SDS011;60349;64.132;-21.820;2023-03-01T03:41:48;10.95;;;0.40;;
72373;SDS011;60349;64.132;-21.820;2023-03-01T03:44:14;8.82;;;0.82;;
72373;SDS011;60349;64.132;-21.820;2023-03-01T03:46:41;7.30;;;0.63;;
72373;SDS011;60349;64.132;-21.820;2023-03-01T03:49:07;4.35;;;0.30;;
72373;SDS011;60349;64.132;-21.820;2023-03-01T03:51:33;9.65;;;1.00;;
72373;SDS011;60349;64.132;-21.820;2023-03-01T03:53:59;7.30;;;0.40;;
72373;SDS011;60349;64.132;-21.820;2023-03-01T03:56:25;10.05;;;0.52;;
72373;SDS011;60349;64.132;-21.820;2023-03-01T03:58:51;5.60;;;0.50;;
72373;SDS011;60349;64.132;-21.820;2023-03-01T04:01:18;6.15;;;0.60;;
72373;SDS011;60349;64.132;-21.820;2023-03-01T04:03:44;5.88;;;1.10;;
72373;SDS011;60349;64.132;-21.820;2023-03-01T04:06:13;10.68;;;0.93;;
72373;SDS011;60349;64.132;-21.820;2023-03-01T04:08:40;9.25;;;0.75;;
72373;SDS011;60349;64.132;-21.820;2023-03-01T04:11:06;6.25;;;0.30;;
72373;SDS011;60349;64.132;-21.820;2023-03-01T04:13:52;8.18;;;0.40;;
72373;SDS011;60349;64.132;-21.820;2023-03-01T04:16:19;6.05;;;0.40;;
72373;SDS011;60349;64.132;-21.820;2023-03-01T04:18:45;6.35;;;0.40;;
72373;SDS011;60349;64.132;-21.820;2023-03-01T04:21:11;6.93;;;0.88;;
72373;SDS011;60349;64.132;-21.820;2023-03-01T04:23:37;8.65;;;0.82;;
72373;SDS011;60349;64.132;-21.820;2023-03-01T04:26:05;5.28;;;0.70;;
72373;SDS011;60349;64.132;-21.820;2023-03-01T04:31:01;3.78;;;0.40;;
72373;SDS011;60349;64.132;-21.820;2023-03-01T04:33:29;4.70;;;0.38;;
72373;SDS011;60349;64.132;-21.820;2023-03-01T04:35:55;9.73;;;0.25;;
72373;SDS011;60349;64.132;-21.820;2023-03-01T04:38:22;6.90;;;0.50;;
72373;SDS011;60349;64.132;-21.820;2023-03-01T04:40:48;8.45;;;0.50;;
72373;SDS011;60349;64.132;-21.820;2023-03-01T04:43:14;5.82;;;0.73;;
72373;SDS011;60349;64.132;-21.820;2023-03-01T04:45:41;15.63;;;0.40;;
72373;SDS011;60349;64.132;-21.820;2023-03-01T04:48:07;10.02;;;0.60;;
72373;SDS011;60349;64.132;-21.820;2023-03-01T04:50:34;8.20;;;0.38;;
72373;SDS011;60349;64.132;-21.820;2023-03-01T04:53:00;6.03;;;0.30;;
72373;SDS011;60349;64.132;-21.820;2023-03-01T04:55:27;6.03;;;0.60;;
72373;SDS011;60349;64.132;-21.820;2023-03-01T04:57:53;4.75;;;0.22;;
72373;SDS011;60349;64.132;-21.820;2023-03-01T05:00:20;9.43;;;0.45;;
72373;SDS011;60349;64.132;-21.820;2023-03-01T05:05:13;7.35;;;0.30;;
72373;SDS011;60349;64.132;-21.820;2023-03-01T05:07:39;11.13;;;0.40;;
72373;SDS011;60349;64.132;-21.820;2023-03-01T05:10:05;7.95;;;0.73;;
72373;SDS011;60349;64.132;-21.820;2023-03-01T05:12:32;7.10;;;0.85;;
72373;SDS011;60349;64.132;-21.820;2023-03-01T05:14:58;7.90;;;0.50;;
72373;SDS011;60349;64.132;-21.820;2023-03-01T05:17:24;9.82;;;0.80;;
72373;SDS011;60349;64.132;-21.820;2023-03-01T05:19:50;6.05;;;0.32;;
72373;SDS011;60349;64.132;-21.820;2023-03-01T05:22:16;7.03;;;0.40;;
72373;SDS011;60349;64.132;-21.820;2023-03-01T05:24:44;6.15;;;0.38;;
72373;SDS011;60349;64.132;-21.820;2023-03-01T05:27:11;2.85;;;0.20;;
72373;SDS011;60349;64.132;-21.820;2023-03-01T05:29:37;6.70;;;0.38;;
72373;SDS011;60349;64.132;-21.820;2023-03-01T05:32:04;5.18;;;0.30;;
72373;SDS011;60349;64.132;-21.820;2023-03-01T05:34:32;5.53;;;0.40;;
72373;SDS011;60349;64.132;-21.820;2023-03-01T05:36:58;5.88;;;0.40;;
72373;SDS011;60349;64.132;-21.820;2023-03-01T05:39:25;5.88;;;0.28;;
72373;SDS011;60349;64.132;-21.820;2023-03-01T05:41:52;9.75;;;0.55;;
72373;SDS011;60349;64.132;-21.820;2023-03-01T05:44:19;6.47;;;0.30;;
72373;SDS011;60349;64.132;-21.820;2023-03-01T05:46:45;6.18;;;0.47;;
72373;SDS011;60349;64.132;-21.820;2023-03-01T05:49:12;5.85;;;0.70;;
72373;SDS011;60349;64.132;-21.820;2023-03-01T05:51:41;7.15;;;0.35;;
72373;SDS011;60349;64.132;-21.820;2023-03-01T05:54:08;5.45;;;0.70;;
72373;SDS011;60349;64.132;-21.820;2023-03-01T05:56:35;9.25;;;0.70;;
72373;SDS011;60349;64.132;-21.820;2023-03-01T05:59:02;7.13;;;0.40;;
72373;SDS011;60349;64.132;-21.820;2023-03-01T06:01:28;5.63;;;0.52;;
72373;SDS011;60349;64.132;-21.820;2023-03-01T06:03:55;6.28;;;0.75;;
72373;SDS011;60349;64.132;-21.820;2023-03-01T06:06:21;4.03;;;0.50;;
72373;SDS011;60349;64.132;-21.820;2023-03-01T06:08:48;7.72;;;0.40;;
72373;SDS011;60349;64.132;-21.820;2023-03-01T06:11:14;6.45;;;0.50;;
72373;SDS011;60349;64.132;-21.820;2023-03-01T06:13:41;5.68;;;0.30;;
72373;SDS011;60349;64.132;-21.820;2023-03-01T06:16:07;5.38;;;0.20;;
72373;SDS011;60349;64.132;-21.820;2023-03-01T06:18:33;9.15;;;0.40;;
72373;SDS011;60349;64.132;-21.820;2023-03-01T06:20:59;4.20;;;0.40;;
72373;SDS011;60349;64.132;-21.820;2023-03-01T06:23:26;7.75;;;0.43;;
72373;SDS011;60349;64.132;-21.820;2023-03-01T06:25:52;5.90;;;0.73;;
72373;SDS011;60349;64.132;-21.820;2023-03-01T06:28:18;8.68;;;0.30;;
72373;SDS011;60349;64.132;-21.820;2023-03-01T06:30:44;7.13;;;0.77;;
72373;SDS011;60349;64.132;-21.820;2023-03-01T06:33:11;5.18;;;0.38;;
72373;SDS011;60349;64.132;-21.820;2023-03-01T06:35:37;5.50;;;0.30;;
72373;SDS011;60349;64.132;-21.820;2023-03-01T06:38:03;6.45;;;0.40;;
72373;SDS011;60349;64.132;-21.820;2023-03-01T06:40:30;7.28;;;0.85;;
72373;SDS011;60349;64.132;-21.820;2023-03-01T06:42:56;6.60;;;0.20;;
72373;SDS011;60349;64.132;-21.820;2023-03-01T06:45:23;8.07;;;0.50;;
72373;SDS011;60349;64.132;-21.820;2023-03-01T06:47:50;7.43;;;0.43;;
72373;SDS011;60349;64.132;-21.820;2023-03-01T06:50:16;4.95;;;0.30;;
72373;SDS011;60349;64.132;-21.820;2023-03-01T06:52:43;11.77;;;0.65;;
72373;SDS011;60349;64.132;-21.820;2023-03-01T06:55:10;3.05;;;0.20;;
72373;SDS011;60349;64.132;-21.820;2023-03-01T06:57:36;13.18;;;0.70;;
72373;SDS011;60349;64.132;-21.820;2023-03-01T07:00:03;7.30;;;0.50;;
72373;SDS011;60349;64.132;-21.820;2023-03-01T07:02:29;3.72;;;0.20;;
72373;SDS011;60349;64.132;-21.820;2023-03-01T07:04:55;8.10;;;0.50;;
72373;SDS011;60349;64.132;-21.820;2023-03-01T07:07:21;6.72;;;0.30;;
72373;SDS011;60349;64.132;-21.820;2023-03-01T07:09:48;7.38;;;0.55;;
72373;SDS011;60349;64.132;-21.820;2023-03-01T07:12:14;10.23;;;0.93;;
72373;SDS011;60349;64.132;-21.820;2023-03-01T07:14:40;5.82;;;0.35;;
72373;SDS011;60349;64.132;-21.820;2023-03-01T07:17:06;7.38;;;0.50;;
72373;SDS011;60349;64.132;-21.820;2023-03-01T07:19:33;9.10;;;0.57;;
72373;SDS011;60349;64.132;-21.820;2023-03-01T07:21:59;6.13;;;0.30;;
72373;SDS011;60349;64.132;-21.820;2023-03-01T07:24:25;6.07;;;0.85;;
72373;SDS011;60349;64.132;-21.820;2023-03-01T07:26:51;7.28;;;0.40;;
72373;SDS011;60349;64.132;-21.820;2023-03-01T07:29:18;4.95;;;0.30;;
72373;SDS011;60349;64.132;-21.820;2023-03-01T07:31:45;7.20;;;0.40;;
72373;SDS011;60349;64.132;-21.820;2023-03-01T07:34:11;6.32;;;0.40;;
72373;SDS011;60349;64.132;-21.820;2023-03-01T07:36:37;8.63;;;1.00;;
72373;SDS011;60349;64.132;-21.820;2023-03-01T07:39:04;7.75;;;0.73;;
72373;SDS011;60349;64.132;-21.820;2023-03-01T07:41:30;7.32;;;0.45;;
72373;SDS011;60349;64.132;-21.820;2023-03-01T07:43:56;6.18;;;0.50;;
72373;SDS011;60349;64.132;-21.820;2023-03-01T07:46:23;9.40;;;0.55;;
72373;SDS011;60349;64.132;-21.820;2023-03-01T07:48:49;5.93;;;0.70;;
72373;SDS011;60349;64.132;-21.820;2023-03-01T07:51:15;10.48;;;0.40;;
72373;SDS011;60349;64.132;-21.820;2023-03-01T07:53:41;11.07;;;0.65;;
72373;SDS011;60349;64.132;-21.820;2023-03-01T07:56:08;6.32;;;0.45;;
72373;SDS011;60349;64.132;-21.820;2023-03-01T07:58:35;8.48;;;0.40;;
72373;SDS011;60349;64.132;-21.820;2023-03-01T08:01:05;11.18;;;0.50;;
72373;SDS011;60349;64.132;-21.820;2023-03-01T08:03:31;6.57;;;0.63;;
72373;SDS011;60349;64.132;-21.820;2023-03-01T08:06:01;10.30;;;0.57;;
72373;SDS011;60349;64.132;-21.820;2023-03-01T08:08:28;7.50;;;0.38;;
72373;SDS011;60349;64.132;-21.820;2023-03-01T08:10:57;15.68;;;0.60;;
72373;SDS011;60349;64.132;-21.820;2023-03-01T08:13:23;12.50;;;0.47;;
72373;SDS011;60349;64.132;-21.820;2023-03-01T08:15:50;8.45;;;0.77;;
72373;SDS011;60349;64.132;-21.820;2023-03-01T08:18:16;10.70;;;0.57;;
72373;SDS011;60349;64.132;-21.820;2023-03-01T08:20:42;9.98;;;0.38;;
72373;SDS011;60349;64.132;-21.820;2023-03-01T08:23:09;5.60;;;0.77;;
72373;SDS011;60349;64.132;-21.820;2023-03-01T08:25:35;11.20;;;0.45;;
72373;SDS011;60349;64.132;-21.820;2023-03-01T08:28:01;5.80;;;0.40;;
72373;SDS011;60349;64.132;-21.820;2023-03-01T08:30:27;11.13;;;0.93;;
72373;SDS011;60349;64.132;-21.820;2023-03-01T08:32:53;10.90;;;0.80;;
72373;SDS011;60349;64.132;-21.820;2023-03-01T08:35:20;10.50;;;0.65;;
72373;SDS011;60349;64.132;-21.820;2023-03-01T08:37:46;6.43;;;0.38;;
72373;SDS011;60349;64.132;-21.820;2023-03-01T08:40:13;8.48;;;0.40;;
72373;SDS011;60349;64.132;-21.820;2023-03-01T08:42:39;6.95;;;0.60;;
72373;SDS011;60349;64.132;-21.820;2023-03-01T08:45:06;10.82;;;0.73;;
72373;SDS011;60349;64.132;-21.820;2023-03-01T08:47:33;4.40;;;0.50;;
72373;SDS011;60349;64.132;-21.820;2023-03-01T08:49:59;11.63;;;0.88;;
72373;SDS011;60349;64.132;-21.820;2023-03-01T08:52:25;7.53;;;0.55;;
72373;SDS011;60349;64.132;-21.820;2023-03-01T08:54:52;7.57;;;0.98;;
72373;SDS011;60349;64.132;-21.820;2023-03-01T08:57:18;7.38;;;0.60;;
72373;SDS011;60349;64.132;-21.820;2023-03-01T08:59:44;9.40;;;0.40;;
72373;SDS011;60349;64.132;-21.820;2023-03-01T09:02:15;9.95;;;0.70;;
72373;SDS011;60349;64.132;-21.820;2023-03-01T09:04:42;7.60;;;0.50;;
72373;SDS011;60349;64.132;-21.820;2023-03-01T09:07:08;7.18;;;0.40;;
72373;SDS011;60349;64.132;-21.820;2023-03-01T09:09:34;6.13;;;0.75;;
72373;SDS011;60349;64.132;-21.820;2023-03-01T09:12:01;6.43;;;0.50;;
72373;SDS011;60349;64.132;-21.820;2023-03-01T09:14:27;5.25;;;0.38;;
72373;SDS011;60349;64.132;-21.820;2023-03-01T09:16:53;10.23;;;0.30;;
72373;SDS011;60349;64.132;-21.820;2023-03-01T09:19:19;6.20;;;0.35;;
72373;SDS011;60349;64.132;-21.820;2023-03-01T09:21:45;6.20;;;0.40;;
72373;SDS011;60349;64.132;-21.820;2023-03-01T09:24:19;5.70;;;0.50;;
72373;SDS011;60349;64.132;-21.820;2023-03-01T09:26:46;7.82;;;0.60;;
72373;SDS011;60349;64.132;-21.820;2023-03-01T09:29:13;6.65;;;0.50;;
72373;SDS011;60349;64.132;-21.820;2023-03-01T09:31:39;8.40;;;0.30;;
72373;SDS011;60349;64.132;-21.820;2023-03-01T09:34:05;5.75;;;0.38;;
72373;SDS011;60349;64.132;-21.820;2023-03-01T09:36:32;7.53;;;0.50;;
72373;SDS011;60349;64.132;-21.820;2023-03-01T09:38:58;7.25;;;0.40;;
72373;SDS011;60349;64.132;-21.820;2023-03-01T09:44:07;10.38;;;0.75;;
72373;SDS011;60349;64.132;-21.820;2023-03-01T09:46:37;7.95;;;0.50;;
72373;SDS011;60349;64.132;-21.820;2023-03-01T09:49:11;5.43;;;0.55;;
72373;SDS011;60349;64.132;-21.820;2023-03-01T09:51:38;8.00;;;0.47;;
72373;SDS011;60349;64.132;-21.820;2023-03-01T09:54:04;6.28;;;0.35;;
72373;SDS011;60349;64.132;-21.820;2023-03-01T10:01:38;6.93;;;0.40;;
72373;SDS011;60349;64.132;-21.820;2023-03-01T10:04:12;6.38;;;0.35;;
72373;SDS011;60349;64.132;-21.820;2023-03-01T10:06:44;5.25;;;0.75;;
72373;SDS011;60349;64.132;-21.820;2023-03-01T10:09:16;6.20;;;0.30;;
72373;SDS011;60349;64.132;-21.820;2023-03-01T10:11:46;6.00;;;0.30;;
72373;SDS011;60349;64.132;-21.820;2023-03-01T10:16:53;5.53;;;0.40;;
72373;SDS011;60349;64.132;-21.820;2023-03-01T10:19:25;9.43;;;0.57;;
72373;SDS011;60349;64.132;-21.820;2023-03-01T10:21:54;5.45;;;0.65;;
72373;SDS011;60349;64.132;-21.820;2023-03-01T10:24:23;8.55;;;0.38;;
72373;SDS011;60349;64.132;-21.820;2023-03-01T10:29:15;3.70;;;0.20;;
72373;SDS011;60349;64.132;-21.820;2023-03-01T10:31:43;4.75;;;0.80;;
72373;SDS011;60349;64.132;-21.820;2023-03-01T10:34:11;3.55;;;0.20;;
72373;SDS011;60349;64.132;-21.820;2023-03-01T10:36:38;7.63;;;0.50;;
72373;SDS011;60349;64.132;-21.820;2023-03-01T10:39:10;9.15;;;0.70;;
72373;SDS011;60349;64.132;-21.820;2023-03-01T10:41:37;5.72;;;0.75;;
72373;SDS011;60349;64.132;-21.820;2023-03-01T10:44:10;12.18;;;4.10;;
72373;SDS011;60349;64.132;-21.820;2023-03-01T10:46:45;17.17;;;6.15;;
72373;SDS011;60349;64.132;-21.820;2023-03-01T10:49:20;18.83;;;6.35;;
72373;SDS011;60349;64.132;-21.820;2023-03-01T10:51:47;17.88;;;6.90;;
72373;SDS011;60349;64.132;-21.820;2023-03-01T10:56:53;17.67;;;6.78;;
72373;SDS011;60349;64.132;-21.820;2023-03-01T10:59:31;13.48;;;5.38;;
72373;SDS011;60349;64.132;-21.820;2023-03-01T11:02:01;22.17;;;6.10;;
72373;SDS011;60349;64.132;-21.820;2023-03-01T11:04:28;16.33;;;5.63;;
72373;SDS011;60349;64.132;-21.820;2023-03-01T11:07:00;15.98;;;5.70;;
72373;SDS011;60349;64.132;-21.820;2023-03-01T11:09:30;14.73;;;5.07;;
72373;SDS011;60349;64.132;-21.820;2023-03-01T11:12:03;21.65;;;5.32;;
72373;SDS011;60349;64.132;-21.820;2023-03-01T11:14:32;24.10;;;5.55;;
72373;SDS011;60349;64.132;-21.820;2023-03-01T11:19:32;18.27;;;4.78;;
72373;SDS011;60349;64.132;-21.820;2023-03-01T11:26:59;14.93;;;4.30;;
72373;SDS011;60349;64.132;-21.820;2023-03-01T11:29:32;14.30;;;4.95;;
72373;SDS011;60349;64.132;-21.820;2023-03-01T11:32:01;14.65;;;5.10;;
72373;SDS011;60349;64.132;-21.820;2023-03-01T11:34:32;15.07;;;4.45;;
72373;SDS011;60349;64.132;-21.820;2023-03-01T11:36:59;20.05;;;4.80;;
72373;SDS011;60349;64.132;-21.820;2023-03-01T11:42:37;16.90;;;3.88;;
72373;SDS011;60349;64.132;-21.820;2023-03-01T11:44:43;13.95;;;3.65;;
72373;SDS011;60349;64.132;-21.820;2023-03-01T11:49:47;15.10;;;3.55;;
72373;SDS011;60349;64.132;-21.820;2023-03-01T11:52:20;9.25;;;2.67;;
72373;SDS011;60349;64.132;-21.820;2023-03-01T12:02:40;11.88;;;1.67;;
72373;SDS011;60349;64.132;-21.820;2023-03-01T12:05:16;15.23;;;2.42;;
72373;SDS011;60349;64.132;-21.820;2023-03-01T12:10:29;15.47;;;1.80;;
72373;SDS011;60349;64.132;-21.820;2023-03-01T12:21:08;6.22;;;1.35;;
72373;SDS011;60349;64.132;-21.820;2023-03-01T12:23:42;9.10;;;1.65;;
72373;SDS011;60349;64.132;-21.820;2023-03-01T12:29:01;8.77;;;2.08;;
72373;SDS011;60349;64.132;-21.820;2023-03-01T12:36:31;11.35;;;1.08;;
72373;SDS011;60349;64.132;-21.820;2023-03-01T12:40:13;8.18;;;1.67;;
72373;SDS011;60349;64.132;-21.820;2023-03-01T12:44:33;11.80;;;1.48;;
72373;SDS011;60349;64.132;-21.820;2023-03-01T12:49:45;6.32;;;1.00;;
72373;SDS011;60349;64.132;-21.820;2023-03-01T12:54:39;7.47;;;0.77;;
72373;SDS011;60349;64.132;-21.820;2023-03-01T12:59:47;10.60;;;0.75;;
72373;SDS011;60349;64.132;-21.820;2023-03-01T13:02:24;11.13;;;1.23;;
72373;SDS011;60349;64.132;-21.820;2023-03-01T13:17:48;7.88;;;0.63;;
72373;SDS011;60349;64.132;-21.820;2023-03-01T13:20:17;10.00;;;1.17;;
72373;SDS011;60349;64.132;-21.820;2023-03-01T13:22:45;11.82;;;0.70;;
72373;SDS011;60349;64.132;-21.820;2023-03-01T13:25:12;10.80;;;0.77;;
72373;SDS011;60349;64.132;-21.820;2023-03-01T13:27:39;12.23;;;0.70;;
72373;SDS011;60349;64.132;-21.820;2023-03-01T13:30:11;8.70;;;0.82;;
72373;SDS011;60349;64.132;-21.820;2023-03-01T13:32:51;10.00;;;0.93;;
72373;SDS011;60349;64.132;-21.820;2023-03-01T13:37:44;9.23;;;0.60;;
72373;SDS011;60349;64.132;-21.820;2023-03-01T13:42:46;6.07;;;0.52;;
72373;SDS011;60349;64.132;-21.820;2023-03-01T13:45:15;7.32;;;0.40;;
72373;SDS011;60349;64.132;-21.820;2023-03-01T13:47:42;6.80;;;0.40;;
72373;SDS011;60349;64.132;-21.820;2023-03-01T13:50:15;11.13;;;0.50;;
72373;SDS011;60349;64.132;-21.820;2023-03-01T13:52:43;6.78;;;0.65;;
72373;SDS011;60349;64.132;-21.820;2023-03-01T13:55:27;8.95;;;0.60;;
72373;SDS011;60349;64.132;-21.820;2023-03-01T13:57:55;9.05;;;0.95;;
72373;SDS011;60349;64.132;-21.820;2023-03-01T14:03:05;5.13;;;0.70;;
72373;SDS011;60349;64.132;-21.820;2023-03-01T14:05:32;5.72;;;0.85;;
72373;SDS011;60349;64.132;-21.820;2023-03-01T14:07:58;9.40;;;0.57;;
72373;SDS011;60349;64.132;-21.820;2023-03-01T14:10:26;10.95;;;0.60;;
72373;SDS011;60349;64.132;-21.820;2023-03-01T14:15:32;8.65;;;0.50;;
72373;SDS011;60349;64.132;-21.820;2023-03-01T14:18:18;7.47;;;0.50;;
72373;SDS011;60349;64.132;-21.820;2023-03-01T14:20:46;6.95;;;0.35;;
72373;SDS011;60349;64.132;-21.820;2023-03-01T14:23:18;8.18;;;0.80;;
72373;SDS011;60349;64.132;-21.820;2023-03-01T14:25:48;6.03;;;0.40;;
72373;SDS011;60349;64.132;-21.820;2023-03-01T14:28:19;7.97;;;0.60;;
72373;SDS011;60349;64.132;-21.820;2023-03-01T14:30:49;6.72;;;0.57;;
72373;SDS011;60349;64.132;-21.820;2023-03-01T14:33:26;8.50;;;0.82;;
72373;SDS011;60349;64.132;-21.820;2023-03-01T14:36:02;12.52;;;0.90;;
72373;SDS011;60349;64.132;-21.820;2023-03-01T14:38:30;5.45;;;0.35;;
72373;SDS011;60349;64.132;-21.820;2023-03-01T14:40:57;6.53;;;0.82;;
72373;SDS011;60349;64.132;-21.820;2023-03-01T14:43:24;10.02;;;0.60;;
72373;SDS011;60349;64.132;-21.820;2023-03-01T14:45:51;6.97;;;0.40;;
72373;SDS011;60349;64.132;-21.820;2023-03-01T14:48:17;6.55;;;0.30;;
72373;SDS011;60349;64.132;-21.820;2023-03-01T14:50:44;13.57;;;1.10;;
72373;SDS011;60349;64.132;-21.820;2023-03-01T14:53:18;11.02;;;0.40;;
72373;SDS011;60349;64.132;-21.820;2023-03-01T14:55:46;7.80;;;0.60;;
72373;SDS011;60349;64.132;-21.820;2023-03-01T14:58:13;6.53;;;0.40;;
72373;SDS011;60349;64.132;-21.820;2023-03-01T15:00:43;9.00;;;0.40;;
72373;SDS011;60349;64.132;-21.820;2023-03-01T15:03:13;9.60;;;0.57;;
72373;SDS011;60349;64.132;-21.820;2023-03-01T15:05:40;7.18;;;0.52;;
72373;SDS011;60349;64.132;-21.820;2023-03-01T15:08:07;17.17;;;1.05;;
72373;SDS011;60349;64.132;-21.820;2023-03-01T15:10:40;10.65;;;0.95;;
72373;SDS011;60349;64.132;-21.820;2023-03-01T15:13:21;7.65;;;0.22;;
72373;SDS011;60349;64.132;-21.820;2023-03-01T15:15:47;8.85;;;0.30;;
72373;SDS011;60349;64.132;-21.820;2023-03-01T15:20:41;13.25;;;0.82;;
72373;SDS011;60349;64.132;-21.820;2023-03-01T15:23:13;5.97;;;0.40;;
72373;SDS011;60349;64.132;-21.820;2023-03-01T15:25:43;8.57;;;0.52;;
72373;SDS011;60349;64.132;-21.820;2023-03-01T15:28:12;5.20;;;0.20;;
72373;SDS011;60349;64.132;-21.820;2023-03-01T15:30:43;6.38;;;0.70;;
72373;SDS011;60349;64.132;-21.820;2023-03-01T15:33:43;10.15;;;0.40;;
72373;SDS011;60349;64.132;-21.820;2023-03-01T15:38:52;3.53;;;0.32;;
72373;SDS011;60349;64.132;-21.820;2023-03-01T15:43:48;8.27;;;0.50;;
72373;SDS011;60349;64.132;-21.820;2023-03-01T15:46:16;10.48;;;0.40;;
72373;SDS011;60349;64.132;-21.820;2023-03-01T15:48:50;4.82;;;0.45;;
72373;SDS011;60349;64.132;-21.820;2023-03-01T15:51:17;14.68;;;0.70;;
72373;SDS011;60349;64.132;-21.820;2023-03-01T15:53:50;10.20;;;0.35;;
72373;SDS011;60349;64.132;-21.820;2023-03-01T15:56:16;7.82;;;0.40;;
72373;SDS011;60349;64.132;-21.820;2023-03-01T15:58:43;9.48;;;0.40;;
72373;SDS011;60349;64.132;-21.820;2023-03-01T16:01:13;6.80;;;0.45;;
72373;SDS011;60349;64.132;-21.820;2023-03-01T16:03:40;7.70;;;0.40;;
72373;SDS011;60349;64.132;-21.820;2023-03-01T16:06:08;11.13;;;1.05;;
72373;SDS011;60349;64.132;-21.820;2023-03-01T16:08:34;8.20;;;0.43;;
72373;SDS011;60349;64.132;-21.820;2023-03-01T16:11:00;8.90;;;0.47;;
72373;SDS011;60349;64.132;-21.820;2023-03-01T16:13:29;10.60;;;0.77;;